Oden, MI (49764)

12:31 PM EDT on September 05, 2015 (GMT -0400)
APRSWXNET | | Change Station
CLOSE
Current Station
Personal Weather Station
Location: Alanson, MI
Elevation: 600 ft
Nearby Weather Stations

Elev 600 ft 45.42 °N, 84.79 °W | Updated 28 minutes ago

Overcast
Overcast
74 °F
Feels Like 73 °F
N
2
Wind Variable Wind from WSW
Gusts 5.0 mph

Today
High -- | Low -- °F
--% Chance of Precip.
Yesterday
High -- | Low -- °F
Precip. -- in
7:05 AM 8:09 PM
Waning Gibbous, 47% visible
Pressure 30.09 in
Visibility 7.0 miles
Clouds Mostly Cloudy 3300 ft
Mostly Cloudy 5500 ft
Heat Index 73 °F
Dew Point 70 °F
Humidity 87%
Rainfall in
Snow Depth Not available.
UV 4 out of 12
Pollen 8.80 out of 12
Air Quality Not available.
Flu Activity Not available.
METAR KMGN 051615Z AUTO 22003KT 7SM BKN033 BKN055 23/20 A3009 RMK AO2 T02300202
Pressure 30.09 in
Visibility 7.0 miles
Clouds Mostly Cloudy 3300 ft
Mostly Cloudy 5500 ft
Heat Index 73 °F
Dew Point 70 °F
Humidity 87%
Rainfall in
Snow Depth Not available.
UV 4 out of 12
Pollen 8.80 out of 12
Air Quality Not available.
Flu Activity Not available.
METAR KMGN 051615Z AUTO 22003KT 7SM BKN033 BKN055 23/20 A3009 RMK AO2 T02300202
Nowcast | as of 12:00 PM EDT on September 5, 2015

At 1 PM...partly cloudy. Scattered showers. Temperature 72. Light winds. At 3 PM...partly cloudy. Temperature 73. West winds 7 mph. At 5 PM...partly cloudy. Temperature 73. West winds 9 mph. At 7 PM...partly cloudy. Temperature 71. Light winds.

×

10-Day Weather Forecast

×

Almanac

Astronomy

Sep. 05, 2015 Rise Set
Actual Time
Civil Twilight
Nautical Twilight
Astronomical Twilight
Moon
Length of Visible Light
Length of Day
Tomorrow will be .
, % of the Moon is Illuminated

Today's Extremes

State Highs State Lows

Community

WunderPhotos

Upload Photos

1,852,495 photos uploaded!

WunderBlogs® & News

Nearby

Air Quality

  Air Quality AQ Index Pollutant
Not available.

Snow Depth

Station Depth Elevation

Earthquake Activity

City Distance Mag. Time & Date
Minimum magnitude displayed is 2.5.

Coastal Water Temperatures

Place Temperature

Stations

Nearby Weather Stations

Station Location Temp. Windchill Dew Point Humidity Wind Precip. Elev Updated Type